Saint Thomas, VI (00803)

5:14 PM AST on January 31, 2015 (GMT -0400)
NorthSide | Change Station
CLOSE
Current Station
Personal Weather Station
Location: St Thomas, VI
Elevation: 728 ft
Nearby Weather Stations

Elev 728 ft 18.36 °N, 64.94 °W | Updated 6 seconds ago

Partly Cloudy
Partly Cloudy
76.1 °F
Feels Like 77 °F
N
1.0
Wind Variable Wind from NE
Gusts 8.0 mph

Today
High -- | Low -- °F
--% Chance of Precip.
Yesterday
High -- | Low -- °F
Precip. -- in
6:53 AM 6:13 PM
Waxing Gibbous, 91% visible
Pressure 29.98 in
Visibility 10.0 miles
Clouds Few 3000 ft
Few 7000 ft
Heat Index 77 °F
Dew Point 70 °F
Humidity 82%
Rainfall 0.00 in
Snow Depth Not available.
UV 1 out of 12
Pollen Not available.
Air Quality Not available.
Flu Activity Not available.
METAR TIST 312053Z AUTO 04009KT 10SM FEW030 FEW070 26/21 A2998 RMK AO2 SLP152 60000 T02610211 55003 TSNO

More Conditions Fewer Conditions

Pressure 29.98 in
Visibility 10.0 miles
Clouds Few 3000 ft
Few 7000 ft
Heat Index 77 °F
Dew Point 70 °F
Humidity 82%
Rainfall 0.00 in
Snow Depth Not available.
UV 1 out of 12
Pollen Not available.
Air Quality Not available.
Flu Activity Not available.
METAR TIST 312053Z AUTO 04009KT 10SM FEW030 FEW070 26/21 A2998 RMK AO2 SLP152 60000 T02610211 55003 TSNO

More Conditions Fewer Conditions

10-Day Weather Forecast

Almanac

Astronomy

Jan. 31, 2015 Rise Set
Actual Time
Civil Twilight
Nautical Twilight
Astronomical Twilight
Moon
Length of Visible Light
Length of Day
Tomorrow will be .
, % of the Moon is Illuminated

Today's Extremes

State Highs State Lows

Community

WunderPhotos

Upload Photos

1,792,203 photos uploaded!

WunderBlogs® & News

Nearby

Air Quality

  Air Quality AQ Index Pollutant
Not available.

Snow Depth

Station Depth Elevation

Earthquake Activity

City Distance Mag. Time & Date
Minimum magnitude displayed is 2.5.

Coastal Water Temperatures

Place Temperature

Nearby Weather Stations